sensor_id;sensor_type;location;lat;lon;timestamp;pressure;altitude;pressure_sealevel;temperature;humidity
46710;BME280;32442;51.514;-0.178;2022-11-15T00:02:00;100220.59;;;21.29;56.49
46710;BME280;32442;51.514;-0.178;2022-11-15T00:04:27;100219.47;;;21.30;56.10
46710;BME280;32442;51.514;-0.178;2022-11-15T00:06:54;100217.78;;;21.29;56.38
46710;BME280;32442;51.514;-0.178;2022-11-15T00:09:21;100216.97;;;21.28;56.39
46710;BME280;32442;51.514;-0.178;2022-11-15T00:11:47;100213.31;;;21.28;56.12
46710;BME280;32442;51.514;-0.178;2022-11-15T00:14:14;100205.72;;;21.28;56.34
46710;BME280;32442;51.514;-0.178;2022-11-15T00:16:40;100202.91;;;21.28;56.19
46710;BME280;32442;51.514;-0.178;2022-11-15T00:19:07;100199.28;;;21.28;56.08
46710;BME280;32442;51.514;-0.178;2022-11-15T00:21:34;100195.97;;;21.26;56.47
46710;BME280;32442;51.514;-0.178;2022-11-15T00:24:01;100201.59;;;21.26;56.60
46710;BME280;32442;51.514;-0.178;2022-11-15T00:26:27;100196.31;;;21.24;56.29
46710;BME280;32442;51.514;-0.178;2022-11-15T00:28:54;100187.06;;;21.24;56.19
46710;BME280;32442;51.514;-0.178;2022-11-15T00:31:21;100181.44;;;21.24;56.56
46710;BME280;32442;51.514;-0.178;2022-11-15T00:33:47;100176.66;;;21.24;56.19
46710;BME280;32442;51.514;-0.178;2022-11-15T00:36:14;100174.16;;;21.23;56.75
46710;BME280;32442;51.514;-0.178;2022-11-15T00:38:41;100173.69;;;21.21;56.62
46710;BME280;32442;51.514;-0.178;2022-11-15T00:41:08;100172.84;;;21.20;56.58
46710;BME280;32442;51.514;-0.178;2022-11-15T00:43:35;100162.75;;;21.19;56.59
46710;BME280;32442;51.514;-0.178;2022-11-15T00:46:02;100159.97;;;21.19;56.67
46710;BME280;32442;51.514;-0.178;2022-11-15T00:48:29;100159.13;;;21.19;56.81
46710;BME280;32442;51.514;-0.178;2022-11-15T00:50:56;100147.06;;;21.18;56.99
46710;BME280;32442;51.514;-0.178;2022-11-15T00:53:23;100147.38;;;21.17;56.71
46710;BME280;32442;51.514;-0.178;2022-11-15T00:55:50;100138.16;;;21.16;56.66
46710;BME280;32442;51.514;-0.178;2022-11-15T00:58:17;100130.88;;;21.15;57.17
46710;BME280;32442;51.514;-0.178;2022-11-15T01:00:43;100122.44;;;21.15;56.96
46710;BME280;32442;51.514;-0.178;2022-11-15T01:03:10;100118.81;;;21.15;57.01
46710;BME280;32442;51.514;-0.178;2022-11-15T01:05:37;100115.19;;;21.14;56.86
46710;BME280;32442;51.514;-0.178;2022-11-15T01:08:04;100098.13;;;21.11;57.30
46710;BME280;32442;51.514;-0.178;2022-11-15T01:10:31;100108.22;;;21.12;57.36
46710;BME280;32442;51.514;-0.178;2022-11-15T01:12:57;100104.59;;;21.11;57.48
46710;BME280;32442;51.514;-0.178;2022-11-15T01:15:24;100098.47;;;21.09;57.08
46710;BME280;32442;51.514;-0.178;2022-11-15T01:17:51;100097.63;;;21.09;57.45
46710;BME280;32442;51.514;-0.178;2022-11-15T01:20:18;100091.19;;;21.08;57.43
46710;BME280;32442;51.514;-0.178;2022-11-15T01:22:45;100096.31;;;21.06;57.67
46710;BME280;32442;51.514;-0.178;2022-11-15T01:25:13;100088.72;;;21.07;57.68
46710;BME280;32442;51.514;-0.178;2022-11-15T01:27:40;100089.88;;;21.06;57.75
46710;BME280;32442;51.514;-0.178;2022-11-15T01:30:07;100074.19;;;21.05;57.78
46710;BME280;32442;51.514;-0.178;2022-11-15T01:32:37;100063.78;;;21.05;57.38
46710;BME280;32442;51.514;-0.178;2022-11-15T01:35:04;100072.19;;;21.05;57.77
46710;BME280;32442;51.514;-0.178;2022-11-15T01:37:31;100060.13;;;21.05;57.77
46710;BME280;32442;51.514;-0.178;2022-11-15T01:39:57;100056.50;;;21.04;57.86
46710;BME280;32442;51.514;-0.178;2022-11-15T01:42:24;100052.38;;;21.02;57.89
46710;BME280;32442;51.514;-0.178;2022-11-15T01:44:51;100054.69;;;21.00;57.51
46710;BME280;32442;51.514;-0.178;2022-11-15T01:47:23;100047.09;;;21.00;57.55
46710;BME280;32442;51.514;-0.178;2022-11-15T01:50:01;100039.81;;;20.99;57.58
46710;BME280;32442;51.514;-0.178;2022-11-15T01:52:30;100045.78;;;20.98;57.64
46710;BME280;32442;51.514;-0.178;2022-11-15T01:57:30;100031.75;;;20.98;57.59
46710;BME280;32442;51.514;-0.178;2022-11-15T01:59:57;100032.06;;;20.96;58.07
46710;BME280;32442;51.514;-0.178;2022-11-15T02:02:24;100015.56;;;20.95;57.94
46710;BME280;32442;51.514;-0.178;2022-11-15T02:04:51;100014.41;;;20.96;58.07
46710;BME280;32442;51.514;-0.178;2022-11-15T02:07:19;100009.09;;;20.94;58.16
46710;BME280;32442;51.514;-0.178;2022-11-15T02:09:46;100007.47;;;20.93;57.88
46710;BME280;32442;51.514;-0.178;2022-11-15T02:12:14;100007.81;;;20.92;57.94
46710;BME280;32442;51.514;-0.178;2022-11-15T02:14:42;100000.53;;;20.91;57.93
46710;BME280;32442;51.514;-0.178;2022-11-15T02:17:22;99992.09;;;20.91;58.06
46710;BME280;32442;51.514;-0.178;2022-11-15T02:27:38;99964.38;;;20.89;58.08
46710;BME280;32442;51.514;-0.178;2022-11-15T02:32:44;99973.81;;;20.84;58.17
46710;BME280;32442;51.514;-0.178;2022-11-15T02:37:46;99958.59;;;20.85;58.05
46710;BME280;32442;51.514;-0.178;2022-11-15T02:40:59;99963.72;;;20.83;58.17
46710;BME280;32442;51.514;-0.178;2022-11-15T02:43:12;99946.53;;;20.85;58.24
46710;BME280;32442;51.514;-0.178;2022-11-15T02:46:07;99939.28;;;20.84;58.12
46710;BME280;32442;51.514;-0.178;2022-11-15T02:48:35;99935.66;;;20.83;58.59
46710;BME280;32442;51.514;-0.178;2022-11-15T02:51:03;99939.63;;;20.82;58.36
46710;BME280;32442;51.514;-0.178;2022-11-15T02:53:30;99938.47;;;20.83;58.09
46710;BME280;32442;51.514;-0.178;2022-11-15T02:55:57;99936.81;;;20.82;58.11
46710;BME280;32442;51.514;-0.178;2022-11-15T03:06:14;99910.91;;;20.77;58.34
46710;BME280;32442;51.514;-0.178;2022-11-15T03:11:15;99893.56;;;20.75;58.54
46710;BME280;32442;51.514;-0.178;2022-11-15T03:14:00;99891.41;;;20.72;58.45
46710;BME280;32442;51.514;-0.178;2022-11-15T03:19:19;99870.63;;;20.73;58.42
46710;BME280;32442;51.514;-0.178;2022-11-15T03:21:48;99880.19;;;20.72;58.28
46710;BME280;32442;51.514;-0.178;2022-11-15T03:24:15;99875.75;;;20.71;58.67
46710;BME280;32442;51.514;-0.178;2022-11-15T03:26:51;99874.94;;;20.70;58.65
46710;BME280;32442;51.514;-0.178;2022-11-15T03:29:20;99875.25;;;20.69;58.71
46710;BME280;32442;51.514;-0.178;2022-11-15T03:31:51;99868.81;;;20.68;58.66
46710;BME280;32442;51.514;-0.178;2022-11-15T03:36:51;99851.50;;;20.66;58.45
46710;BME280;32442;51.514;-0.178;2022-11-15T03:39:18;99854.31;;;20.66;58.62
46710;BME280;32442;51.514;-0.178;2022-11-15T03:42:03;99851.16;;;20.68;58.77
46710;BME280;32442;51.514;-0.178;2022-11-15T03:44:47;99844.25;;;20.65;58.82
46710;BME280;32442;51.514;-0.178;2022-11-15T03:47:21;99844.56;;;20.64;58.54
46710;BME280;32442;51.514;-0.178;2022-11-15T03:49:51;99843.75;;;20.63;58.85
46710;BME280;32442;51.514;-0.178;2022-11-15T03:52:19;99838.13;;;20.63;59.14
46710;BME280;32442;51.514;-0.178;2022-11-15T03:54:53;99839.78;;;20.64;59.23
46710;BME280;32442;51.514;-0.178;2022-11-15T03:57:21;99834.50;;;20.63;59.30
46710;BME280;32442;51.514;-0.178;2022-11-15T03:59:48;99826.44;;;20.61;59.27
46710;BME280;32442;51.514;-0.178;2022-11-15T04:02:14;99821.97;;;20.60;59.42
46710;BME280;32442;51.514;-0.178;2022-11-15T04:04:41;99825.94;;;20.59;59.34
46710;BME280;32442;51.514;-0.178;2022-11-15T04:07:08;99818.84;;;20.62;59.45
46710;BME280;32442;51.514;-0.178;2022-11-15T04:09:35;99811.91;;;20.59;59.10
46710;BME280;32442;51.514;-0.178;2022-11-15T04:12:22;99807.63;;;20.62;59.60
46710;BME280;32442;51.514;-0.178;2022-11-15T04:14:58;99809.59;;;20.61;59.45
46710;BME280;32442;51.514;-0.178;2022-11-15T04:17:34;99799.53;;;20.60;59.46
46710;BME280;32442;51.514;-0.178;2022-11-15T04:20:02;99799.03;;;20.58;59.28
46710;BME280;32442;51.514;-0.178;2022-11-15T04:22:48;99796.72;;;20.60;59.26
46710;BME280;32442;51.514;-0.178;2022-11-15T04:25:33;99781.38;;;20.58;59.35
46710;BME280;32442;51.514;-0.178;2022-11-15T04:27:59;99795.41;;;20.58;59.56
46710;BME280;32442;51.514;-0.178;2022-11-15T04:30:26;99778.91;;;20.56;59.47
46710;BME280;32442;51.514;-0.178;2022-11-15T04:32:53;99771.31;;;20.57;59.69
46710;BME280;32442;51.514;-0.178;2022-11-15T04:35:20;99764.88;;;20.56;59.60
46710;BME280;32442;51.514;-0.178;2022-11-15T04:37:46;99759.59;;;20.55;59.59
46710;BME280;32442;51.514;-0.178;2022-11-15T04:40:14;99763.22;;;20.55;59.85
46710;BME280;32442;51.514;-0.178;2022-11-15T04:42:41;99755.97;;;20.54;59.67
46710;BME280;32442;51.514;-0.178;2022-11-15T04:45:09;99752.00;;;20.55;59.93
46710;BME280;32442;51.514;-0.178;2022-11-15T04:47:36;99743.91;;;20.54;59.69
46710;BME280;32442;51.514;-0.178;2022-11-15T04:50:03;99733.50;;;20.54;59.62
46710;BME280;32442;51.514;-0.178;2022-11-15T04:52:30;99722.66;;;20.53;60.08
46710;BME280;32442;51.514;-0.178;2022-11-15T04:55:01;99721.00;;;20.52;59.70
46710;BME280;32442;51.514;-0.178;2022-11-15T04:57:33;99724.63;;;20.52;60.08
46710;BME280;32442;51.514;-0.178;2022-11-15T05:00:00;99721.00;;;20.52;60.10
46710;BME280;32442;51.514;-0.178;2022-11-15T05:02:26;99713.72;;;20.51;59.84
46710;BME280;32442;51.514;-0.178;2022-11-15T05:05:21;99711.41;;;20.53;59.95
46710;BME280;32442;51.514;-0.178;2022-11-15T05:07:48;99702.50;;;20.51;59.92
46710;BME280;32442;51.514;-0.178;2022-11-15T05:10:15;99708.94;;;20.51;60.05
46710;BME280;32442;51.514;-0.178;2022-11-15T05:12:41;99691.28;;;20.51;60.13
46710;BME280;32442;51.514;-0.178;2022-11-15T05:15:08;99691.59;;;20.49;60.21
46710;BME280;32442;51.514;-0.178;2022-11-15T05:17:35;99696.06;;;20.50;59.86
46710;BME280;32442;51.514;-0.178;2022-11-15T05:20:02;99683.19;;;20.49;60.11
46710;BME280;32442;51.514;-0.178;2022-11-15T05:22:28;99674.78;;;20.49;60.47
46710;BME280;32442;51.514;-0.178;2022-11-15T05:24:55;99675.97;;;20.48;60.26
46710;BME280;32442;51.514;-0.178;2022-11-15T05:27:22;99663.91;;;20.48;60.02
46710;BME280;32442;51.514;-0.178;2022-11-15T05:29:48;99654.66;;;20.47;60.14
46710;BME280;32442;51.514;-0.178;2022-11-15T05:32:15;99658.63;;;20.46;60.01
46710;BME280;32442;51.514;-0.178;2022-11-15T05:34:43;99656.66;;;20.47;60.21
46710;BME280;32442;51.514;-0.178;2022-11-15T05:37:09;99658.63;;;20.46;60.30
46710;BME280;32442;51.514;-0.178;2022-11-15T05:39:36;99635.72;;;20.44;59.99
46710;BME280;32442;51.514;-0.178;2022-11-15T05:42:05;99636.50;;;20.45;60.40
46710;BME280;32442;51.514;-0.178;2022-11-15T05:44:35;99636.50;;;20.45;60.26
46710;BME280;32442;51.514;-0.178;2022-11-15T05:47:02;99633.72;;;20.45;60.15
46710;BME280;32442;51.514;-0.178;2022-11-15T05:49:31;99640.50;;;20.44;60.51
46710;BME280;32442;51.514;-0.178;2022-11-15T05:52:02;99630.44;;;20.42;60.36
46710;BME280;32442;51.514;-0.178;2022-11-15T05:54:29;99612.28;;;20.40;60.38
46710;BME280;32442;51.514;-0.178;2022-11-15T05:56:57;99614.75;;;20.41;60.41
46710;BME280;32442;51.514;-0.178;2022-11-15T05:59:24;99612.78;;;20.42;60.43
46710;BME280;32442;51.514;-0.178;2022-11-15T06:01:51;99603.53;;;20.41;60.74
46710;BME280;32442;51.514;-0.178;2022-11-15T06:04:17;99603.88;;;20.40;60.68
46710;BME280;32442;51.514;-0.178;2022-11-15T06:06:44;99607.84;;;20.39;60.66
46710;BME280;32442;51.514;-0.178;2022-11-15T06:09:11;99606.22;;;20.38;60.63
46710;BME280;32442;51.514;-0.178;2022-11-15T06:11:38;99611.50;;;20.39;60.74
46710;BME280;32442;51.514;-0.178;2022-11-15T06:14:04;99594.28;;;20.41;60.67
46710;BME280;32442;51.514;-0.178;2022-11-15T06:16:31;99598.06;;;20.45;60.53
46710;BME280;32442;51.514;-0.178;2022-11-15T06:18:58;99598.88;;;20.46;60.97
46710;BME280;32442;51.514;-0.178;2022-11-15T06:21:24;99590.59;;;20.49;61.20
46710;BME280;32442;51.514;-0.178;2022-11-15T06:23:54;99597.53;;;20.52;61.26
46710;BME280;32442;51.514;-0.178;2022-11-15T06:26:20;99591.22;;;20.55;61.55
46710;BME280;32442;51.514;-0.178;2022-11-15T06:28:47;99585.75;;;20.58;61.47
46710;BME280;32442;51.514;-0.178;2022-11-15T06:31:14;99585.53;;;20.63;61.51
46710;BME280;32442;51.514;-0.178;2022-11-15T06:33:40;99586.50;;;20.67;61.96
46710;BME280;32442;51.514;-0.178;2022-11-15T06:36:08;99579.06;;;20.71;61.95
46710;BME280;32442;51.514;-0.178;2022-11-15T06:38:43;99580.81;;;20.76;62.22
46710;BME280;32442;51.514;-0.178;2022-11-15T06:41:10;99573.84;;;20.82;62.24
46710;BME280;32442;51.514;-0.178;2022-11-15T06:43:37;99574.78;;;20.86;62.02
46710;BME280;32442;51.514;-0.178;2022-11-15T06:46:04;99570.94;;;20.91;61.85
46710;BME280;32442;51.514;-0.178;2022-11-15T06:48:32;99560.31;;;20.96;61.96
46710;BME280;32442;51.514;-0.178;2022-11-15T06:50:59;99557.63;;;21.00;61.89
46710;BME280;32442;51.514;-0.178;2022-11-15T06:53:27;99555.44;;;21.05;61.76
46710;BME280;32442;51.514;-0.178;2022-11-15T06:55:57;99552.41;;;21.10;61.79
46710;BME280;32442;51.514;-0.178;2022-11-15T06:58:24;99547.44;;;21.16;61.64
46710;BME280;32442;51.514;-0.178;2022-11-15T07:00:51;99544.75;;;21.19;61.89
46710;BME280;32442;51.514;-0.178;2022-11-15T07:03:18;99545.00;;;21.26;61.67
46710;BME280;32442;51.514;-0.178;2022-11-15T07:05:54;99539.16;;;21.32;62.07
46710;BME280;32442;51.514;-0.178;2022-11-15T07:08:21;99526.06;;;21.36;61.78
46710;BME280;32442;51.514;-0.178;2022-11-15T07:10:48;99527.81;;;21.40;61.70
46710;BME280;32442;51.514;-0.178;2022-11-15T07:13:15;99521.16;;;21.45;61.74
46710;BME280;32442;51.514;-0.178;2022-11-15T07:15:41;99524.91;;;21.49;61.37
46710;BME280;32442;51.514;-0.178;2022-11-15T07:18:08;99516.25;;;21.54;61.69
46710;BME280;32442;51.514;-0.178;2022-11-15T07:20:35;99514.38;;;21.58;61.25
46710;BME280;32442;51.514;-0.178;2022-11-15T07:23:02;99515.66;;;21.60;60.80
46710;BME280;32442;51.514;-0.178;2022-11-15T07:25:29;99518.59;;;21.64;60.54
46710;BME280;32442;51.514;-0.178;2022-11-15T07:27:56;99507.84;;;21.66;60.09
46710;BME280;32442;51.514;-0.178;2022-11-15T07:30:23;99507.13;;;21.69;59.98
46710;BME280;32442;51.514;-0.178;2022-11-15T07:32:58;99501.97;;;21.71;59.90
46710;BME280;32442;51.514;-0.178;2022-11-15T07:35:26;99507.22;;;21.72;60.07
46710;BME280;32442;51.514;-0.178;2022-11-15T07:37:57;99513.34;;;21.74;59.73
46710;BME280;32442;51.514;-0.178;2022-11-15T07:40:24;99502.53;;;21.77;59.62
46710;BME280;32442;51.514;-0.178;2022-11-15T07:42:59;99503.03;;;21.79;59.61
46710;BME280;32442;51.514;-0.178;2022-11-15T07:45:29;99486.97;;;21.79;59.60
46710;BME280;32442;51.514;-0.178;2022-11-15T07:47:56;99492.22;;;21.81;59.63
46710;BME280;32442;51.514;-0.178;2022-11-15T07:50:23;99493.88;;;21.82;59.08
46710;BME280;32442;51.514;-0.178;2022-11-15T07:52:56;99494.59;;;21.66;56.03
46710;BME280;32442;51.514;-0.178;2022-11-15T07:55:24;99493.78;;;21.66;56.59
46710;BME280;32442;51.514;-0.178;2022-11-15T07:57:51;99488.16;;;21.66;57.00
46710;BME280;32442;51.514;-0.178;2022-11-15T08:00:17;99480.06;;;21.64;56.53
46710;BME280;32442;51.514;-0.178;2022-11-15T08:02:44;99474.44;;;21.64;56.44
46710;BME280;32442;51.514;-0.178;2022-11-15T08:05:12;99465.19;;;21.64;56.79
46710;BME280;32442;51.514;-0.178;2022-11-15T08:07:41;99470.81;;;21.64;56.75
46710;BME280;32442;51.514;-0.178;2022-11-15T08:10:10;99463.53;;;21.63;56.38
46710;BME280;32442;51.514;-0.178;2022-11-15T08:12:38;99463.53;;;21.63;56.40
46710;BME280;32442;51.514;-0.178;2022-11-15T08:15:05;99457.91;;;21.63;56.54
46710;BME280;32442;51.514;-0.178;2022-11-15T08:17:31;99456.66;;;21.60;56.62
46710;BME280;32442;51.514;-0.178;2022-11-15T08:20:00;99451.84;;;21.61;56.76
46710;BME280;32442;51.514;-0.178;2022-11-15T08:22:26;99441.78;;;21.60;57.00
46710;BME280;32442;51.514;-0.178;2022-11-15T08:24:53;99446.34;;;21.64;57.19
46710;BME280;32442;51.514;-0.178;2022-11-15T08:27:20;99436.38;;;21.67;57.02
46710;BME280;32442;51.514;-0.178;2022-11-15T08:29:48;99441.28;;;21.70;57.50
46710;BME280;32442;51.514;-0.178;2022-11-15T08:32:16;99440.81;;;21.68;56.63
46710;BME280;32442;51.514;-0.178;2022-11-15T08:34:44;99435.19;;;21.68;57.02
46710;BME280;32442;51.514;-0.178;2022-11-15T08:37:11;99432.03;;;21.69;56.90
46710;BME280;32442;51.514;-0.178;2022-11-15T08:39:37;99439.31;;;21.70;57.04
46710;BME280;32442;51.514;-0.178;2022-11-15T08:42:04;99439.75;;;21.72;56.83
46710;BME280;32442;51.514;-0.178;2022-11-15T08:44:30;99430.16;;;21.73;56.82
46710;BME280;32442;51.514;-0.178;2022-11-15T08:46:57;99418.56;;;21.75;57.01
46710;BME280;32442;51.514;-0.178;2022-11-15T08:49:24;99414.56;;;21.76;56.82
46710;BME280;32442;51.514;-0.178;2022-11-15T08:51:51;99407.78;;;21.77;56.79
46710;BME280;32442;51.514;-0.178;2022-11-15T08:54:17;99409.41;;;21.78;56.83
46710;BME280;32442;51.514;-0.178;2022-11-15T08:56:44;99408.25;;;21.79;56.66
46710;BME280;32442;51.514;-0.178;2022-11-15T08:59:11;99407.09;;;21.80;56.29
46710;BME280;32442;51.514;-0.178;2022-11-15T09:01:37;99407.88;;;21.81;56.54
46710;BME280;32442;51.514;-0.178;2022-11-15T09:04:04;99401.09;;;21.82;56.83
46710;BME280;32442;51.514;-0.178;2022-11-15T09:06:31;99401.91;;;21.82;56.46
46710;BME280;32442;51.514;-0.178;2022-11-15T09:08:58;99394.63;;;21.81;56.51
46710;BME280;32442;51.514;-0.178;2022-11-15T09:11:24;99385.03;;;21.82;56.54
46710;BME280;32442;51.514;-0.178;2022-11-15T09:13:52;99376.59;;;21.82;56.35
46710;BME280;32442;51.514;-0.178;2022-11-15T09:16:19;99379.41;;;21.82;56.24
46710;BME280;32442;51.514;-0.178;2022-11-15T09:18:47;99365.34;;;21.82;56.22
46710;BME280;32442;51.514;-0.178;2022-11-15T09:21:14;99371.81;;;21.83;56.38
46710;BME280;32442;51.514;-0.178;2022-11-15T09:23:40;99362.53;;;21.82;56.19
46710;BME280;32442;51.514;-0.178;2022-11-15T09:26:07;99366.19;;;21.83;56.34
46710;BME280;32442;51.514;-0.178;2022-11-15T09:28:34;99360.22;;;21.84;56.20
46710;BME280;32442;51.514;-0.178;2022-11-15T09:31:03;99347.66;;;21.82;56.25
46710;BME280;32442;51.514;-0.178;2022-11-15T09:33:30;99357.25;;;21.81;56.13
46710;BME280;32442;51.514;-0.178;2022-11-15T09:36:01;99344.41;;;21.80;56.10
46710;BME280;32442;51.514;-0.178;2022-11-15T09:38:28;99346.41;;;21.79;56.26
46710;BME280;32442;51.514;-0.178;2022-11-15T09:43:47;99339.13;;;21.78;56.39
46710;BME280;32442;51.514;-0.178;2022-11-15T09:48:51;99327.41;;;21.76;56.29
46710;BME280;32442;51.514;-0.178;2022-11-15T09:51:41;99309.75;;;21.76;56.25
46710;BME280;32442;51.514;-0.178;2022-11-15T09:57:16;99308.94;;;21.75;56.42
46710;BME280;32442;51.514;-0.178;2022-11-15T10:02:21;99299.69;;;21.74;56.22
46710;BME280;32442;51.514;-0.178;2022-11-15T10:04:50;99296.03;;;21.74;56.08
46710;BME280;32442;51.514;-0.178;2022-11-15T10:07:23;99294.41;;;21.73;56.02
46710;BME280;32442;51.514;-0.178;2022-11-15T10:12:23;99285.16;;;21.72;56.02
46710;BME280;32442;51.514;-0.178;2022-11-15T10:14:56;99282.34;;;21.72;56.22
46710;BME280;32442;51.514;-0.178;2022-11-15T10:17:29;99277.88;;;21.71;56.41
46710;BME280;32442;51.514;-0.178;2022-11-15T10:20:05;99283.50;;;21.71;56.40
46710;BME280;32442;51.514;-0.178;2022-11-15T10:23:10;99269.81;;;21.70;56.00
46710;BME280;32442;51.514;-0.178;2022-11-15T10:25:27;99268.19;;;21.69;56.16
46710;BME280;32442;51.514;-0.178;2022-11-15T10:30:37;99248.03;;;21.67;56.19
46710;BME280;32442;51.514;-0.178;2022-11-15T10:33:10;99241.97;;;21.65;56.01
46710;BME280;32442;51.514;-0.178;2022-11-15T10:35:38;99241.16;;;21.64;56.34
46710;BME280;32442;51.514;-0.178;2022-11-15T10:38:06;99228.25;;;21.63;56.30
46710;BME280;32442;51.514;-0.178;2022-11-15T10:40:34;99221.81;;;21.63;56.12
46710;BME280;32442;51.514;-0.178;2022-11-15T10:45:36;99218.56;;;21.61;56.21
46710;BME280;32442;51.514;-0.178;2022-11-15T10:48:22;99207.31;;;21.61;55.88
46710;BME280;32442;51.514;-0.178;2022-11-15T10:50:50;99203.22;;;21.58;55.97
46710;BME280;32442;51.514;-0.178;2022-11-15T10:53:28;99194.78;;;21.58;55.95
46710;BME280;32442;51.514;-0.178;2022-11-15T10:55:58;99194.34;;;21.56;56.33
46710;BME280;32442;51.514;-0.178;2022-11-15T10:58:40;99192.69;;;21.55;55.98
46710;BME280;32442;51.514;-0.178;2022-11-15T11:01:12;99192.22;;;21.53;56.22
46710;BME280;32442;51.514;-0.178;2022-11-15T11:03:39;99183.00;;;21.53;56.09
46710;BME280;32442;51.514;-0.178;2022-11-15T11:06:12;99179.38;;;21.52;56.21
46710;BME280;32442;51.514;-0.178;2022-11-15T11:08:59;99172.47;;;21.50;56.23
46710;BME280;32442;51.514;-0.178;2022-11-15T11:11:46;99166.03;;;21.49;56.07
46710;BME280;32442;51.514;-0.178;2022-11-15T11:14:13;99162.78;;;21.47;56.50
46710;BME280;32442;51.514;-0.178;2022-11-15T11:17:06;99161.94;;;21.47;56.54
46710;BME280;32442;51.514;-0.178;2022-11-15T11:22:03;99149.06;;;21.46;56.45
46710;BME280;32442;51.514;-0.178;2022-11-15T11:24:44;99135.38;;;21.44;56.55
46710;BME280;32442;51.514;-0.178;2022-11-15T11:30:02;99136.91;;;21.42;56.13
46710;BME280;32442;51.514;-0.178;2022-11-15T11:32:46;99129.66;;;21.41;56.16
46710;BME280;32442;51.514;-0.178;2022-11-15T11:35:31;99128.84;;;21.40;56.41
46710;BME280;32442;51.514;-0.178;2022-11-15T11:41:05;99108.72;;;21.38;56.60
46710;BME280;32442;51.514;-0.178;2022-11-15T11:48:48;99098.91;;;21.32;56.45
46710;BME280;32442;51.514;-0.178;2022-11-15T11:51:19;99082.41;;;21.30;56.52
46710;BME280;32442;51.514;-0.178;2022-11-15T11:53:49;99086.03;;;21.31;56.71
46710;BME280;32442;51.514;-0.178;2022-11-15T11:56:23;99082.78;;;21.29;56.53
46710;BME280;32442;51.514;-0.178;2022-11-15T11:58:52;99074.72;;;21.27;56.35
46710;BME280;32442;51.514;-0.178;2022-11-15T12:01:23;99063.38;;;21.24;56.57
46710;BME280;32442;51.514;-0.178;2022-11-15T12:03:59;99058.94;;;21.23;56.63
46710;BME280;32442;51.514;-0.178;2022-11-15T12:06:38;99047.25;;;21.21;56.78
46710;BME280;32442;51.514;-0.178;2022-11-15T12:09:13;99043.97;;;21.19;56.74
46710;BME280;32442;51.514;-0.178;2022-11-15T12:11:52;99035.09;;;21.17;56.64
46710;BME280;32442;51.514;-0.178;2022-11-15T12:16:51;99028.22;;;21.14;56.62
46710;BME280;32442;51.514;-0.178;2022-11-15T12:19:18;99022.94;;;21.13;56.92
46710;BME280;32442;51.514;-0.178;2022-11-15T12:21:56;99017.66;;;21.11;56.66
46710;BME280;32442;51.514;-0.178;2022-11-15T12:24:37;99018.03;;;21.10;56.84
46710;BME280;32442;51.514;-0.178;2022-11-15T12:27:11;99002.72;;;21.07;57.24
46710;BME280;32442;51.514;-0.178;2022-11-15T12:29:47;99008.69;;;21.06;56.78
46710;BME280;32442;51.514;-0.178;2022-11-15T12:32:34;99003.41;;;21.04;56.79
46710;BME280;32442;51.514;-0.178;2022-11-15T12:35:02;99002.16;;;21.02;57.02
46710;BME280;32442;51.514;-0.178;2022-11-15T12:42:41;98987.22;;;20.98;57.23
46710;BME280;32442;51.514;-0.178;2022-11-15T13:04:21;98955.22;;;20.86;57.37
46710;BME280;32442;51.514;-0.178;2022-11-15T13:06:49;98963.97;;;20.85;57.21
46710;BME280;32442;51.514;-0.178;2022-11-15T13:19:46;98955.03;;;20.79;57.84
46710;BME280;32442;51.514;-0.178;2022-11-15T13:22:13;98950.56;;;20.78;57.75
46710;BME280;32442;51.514;-0.178;2022-11-15T13:25:01;98949.75;;;20.78;57.70
46710;BME280;32442;51.514;-0.178;2022-11-15T13:27:27;98951.75;;;20.77;58.07
46710;BME280;32442;51.514;-0.178;2022-11-15T13:29:55;98952.91;;;20.76;57.81
46710;BME280;32442;51.514;-0.178;2022-11-15T13:32:21;98958.53;;;20.76;57.90
46710;BME280;32442;51.514;-0.178;2022-11-15T13:34:49;98955.28;;;20.74;57.92
46710;BME280;32442;51.514;-0.178;2022-11-15T13:39:48;98960.50;;;20.76;57.86
46710;BME280;32442;51.514;-0.178;2022-11-15T13:42:16;98956.91;;;20.75;58.20
46710;BME280;32442;51.514;-0.178;2022-11-15T13:44:57;98966.13;;;20.76;57.70
46710;BME280;32442;51.514;-0.178;2022-11-15T13:47:28;98966.50;;;20.74;57.87
46710;BME280;32442;51.514;-0.178;2022-11-15T13:49:58;98960.06;;;20.74;57.98
46710;BME280;32442;51.514;-0.178;2022-11-15T13:52:27;98960.06;;;20.74;57.97
46710;BME280;32442;51.514;-0.178;2022-11-15T13:54:57;98966.84;;;20.73;57.89
46710;BME280;32442;51.514;-0.178;2022-11-15T13:57:26;98976.44;;;20.72;57.90
46710;BME280;32442;51.514;-0.178;2022-11-15T13:59:56;98970.81;;;20.72;57.94
46710;BME280;32442;51.514;-0.178;2022-11-15T14:02:30;98972.84;;;20.71;57.80
46710;BME280;32442;51.514;-0.178;2022-11-15T14:05:02;98976.81;;;20.70;57.84
46710;BME280;32442;51.514;-0.178;2022-11-15T14:07:40;98972.38;;;20.69;57.81
46710;BME280;32442;51.514;-0.178;2022-11-15T14:10:16;98968.31;;;20.67;58.21
46710;BME280;32442;51.514;-0.178;2022-11-15T14:12:50;98980.31;;;20.67;57.89
46710;BME280;32442;51.514;-0.178;2022-11-15T14:15:33;98973.09;;;20.66;57.87
46710;BME280;32442;51.514;-0.178;2022-11-15T14:18:01;98972.28;;;20.66;57.91
46710;BME280;32442;51.514;-0.178;2022-11-15T14:20:29;98971.09;;;20.67;57.96
46710;BME280;32442;51.514;-0.178;2022-11-15T14:25:51;98972.19;;;20.62;57.91
46710;BME280;32442;51.514;-0.178;2022-11-15T14:30:45;98977.41;;;20.64;57.61
46710;BME280;32442;51.514;-0.178;2022-11-15T14:33:20;98974.59;;;20.64;57.75
46710;BME280;32442;51.514;-0.178;2022-11-15T14:35:47;98975.78;;;20.63;57.90
46710;BME280;32442;51.514;-0.178;2022-11-15T14:38:14;98978.97;;;20.61;57.68
46710;BME280;32442;51.514;-0.178;2022-11-15T14:40:41;98971.72;;;20.60;57.50
46710;BME280;32442;51.514;-0.178;2022-11-15T14:43:09;98974.84;;;20.59;57.46
46710;BME280;32442;51.514;-0.178;2022-11-15T14:45:37;98976.06;;;20.58;57.52
46710;BME280;32442;51.514;-0.178;2022-11-15T14:48:04;98980.03;;;20.57;57.45
46710;BME280;32442;51.514;-0.178;2022-11-15T14:50:31;98977.22;;;20.57;57.57